Česky Dansk Deutsch English Español Suomi Français Magyar Italiano Nederlands norsk Polski Português svenska Türkçe

 

Het Weer

Le Puy (Frankrijk)

20:00, 1 mei 2013 (GMT)

NWNNE
WE
SWSSE
Home            
Le Puy St-Etienne Boutheon Mende / Brenoux Clermont-Ferrand Montelimar Aurillac Lyon / Bron Vichy Lyon / Satolas Rodez Grenoble / St. Geoirs Orange Cassagnes-Begonhes Nimes / Courbessac Saint-Yan Nimes / Garons Macon Amberieu Montlucon / Gueret Montpellier Chambery / Aix-Les-Bains Brive Albi

Om een weerknop op uw website of weblog te plaatsen, copieer onderstaande code en plak die in uw pagina. In het eerste vakje staat HTML-code, in het tweede vakje UBB-code.


Add to Google

Details

Wind speed:1 bf, 2 kn, 1.0 m/s, 2.3 miles/h, 3.7 km/h
Wind direction:Variable
Visibility:Greater than 10000 m, 10 km, 32800 ft, 6.2 miles
Clouds:Ein wenig bewölkt at 4100 ft, 1250 m
Temperature:11°C, 52°F
Dew-point:6°C, 43°F
Atmospheric pressure:1018 hPa, 763.6 mmHg, 30.06 inHg, 1.005 atm
Relative humidity:71.2 %
METAR:LFHP 012000Z AUTO VRB02KT 9999 FEW041 11/06 Q1018

Snelkoppelingen

Actuele weersinformatie van de hele wereld. Voeg locaties toe met het plus (+) symbool. Deze snelkoppelingen kunnen worden toegevoegd aan Google.

Lid van de Technetium groep

website free tracking
StatCounter NetStat W3C Validator

19-10-2020 05:48:34
astro.technetium.be money.technetium.be phote.technetium.be tafeltennistafel.technetium.be www.ligfiets.net